Time;durP1;ratioP1;P1;durP2;ratioP2;P2;SDS_P1;SDS_P2;PMS_P1;PMS_P2;Temp;Humidity;BMP_temperature;BMP_pressure;BME280_temperature;BME280_humidity;BME280_pressure;Samples;Min_cycle;Max_cycle;Signal;HPM_P1;HPM_P2
2023/05/26 00:01:11;;;;;;;7.97;7.10;;;17.20;63.40;;;;;;5019973;28;20189;-89
2023/05/26 00:03:36;;;;;;;9.40;7.33;;;17.30;63.00;;;;;;5012705;28;20216;-86
2023/05/26 00:06:03;;;;;;;8.23;6.60;;;17.30;62.90;;;;;;5003321;28;20666;-86
2023/05/26 00:08:28;;;;;;;9.30;6.88;;;17.40;62.50;;;;;;5010369;28;20268;-88
2023/05/26 00:10:54;;;;;;;8.30;7.28;;;17.60;61.90;;;;;;5039638;28;20192;-88
2023/05/26 00:13:19;;;;;;;8.50;7.10;;;17.50;62.00;;;;;;5033003;28;20280;-86
2023/05/26 00:15:45;;;;;;;8.52;7.60;;;17.40;62.30;;;;;;5020176;28;20226;-86
2023/05/26 00:18:11;;;;;;;7.83;7.23;;;17.30;62.80;;;;;;5017324;28;20202;-88
2023/05/26 00:20:36;;;;;;;9.50;7.67;;;17.20;63.30;;;;;;5008750;28;20450;-87
2023/05/26 00:23:02;;;;;;;8.97;6.87;;;17.10;63.80;;;;;;5020519;28;20167;-86
2023/05/26 00:25:28;;;;;;;7.83;7.03;;;17.10;63.80;;;;;;5020820;28;20215;-88
2023/05/26 00:27:53;;;;;;;9.50;7.27;;;17.10;63.40;;;;;;5019979;28;20174;-88
2023/05/26 00:30:19;;;;;;;7.53;6.77;;;17.20;63.60;;;;;;5018616;28;20178;-86
2023/05/26 00:32:45;;;;;;;7.90;7.10;;;17.30;63.40;;;;;;5019450;28;20186;-86
2023/05/26 00:35:11;;;;;;;8.60;7.80;;;17.30;62.90;;;;;;5018113;28;20208;-87
2023/05/26 00:37:36;;;;;;;7.57;6.87;;;17.40;62.50;;;;;;5019120;28;20211;-88
2023/05/26 00:40:02;;;;;;;8.67;6.93;;;17.30;62.90;;;;;;5018915;28;20214;-87
2023/05/26 00:42:28;;;;;;;7.67;6.83;;;16.90;64.30;;;;;;5019103;28;20181;-88
2023/05/26 00:44:53;;;;;;;8.37;7.57;;;16.70;65.50;;;;;;5007688;28;20207;-87
2023/05/26 00:47:19;;;;;;;7.80;6.97;;;16.70;65.20;;;;;;5001066;28;20199;-86
2023/05/26 00:49:45;;;;;;;10.80;7.03;;;16.60;65.80;;;;;;5000029;28;20198;-86
2023/05/26 00:52:12;;;;;;;8.37;7.40;;;16.60;65.90;;;;;;5002339;28;20268;-86
2023/05/26 00:54:42;;;;;;;7.33;6.63;;;16.60;65.80;;;;;;5019408;28;20215;-88
2023/05/26 00:57:08;;;;;;;8.23;7.20;;;16.80;65.40;;;;;;5018568;28;20189;-88
2023/05/26 00:59:34;;;;;;;7.93;7.13;;;16.60;65.60;;;;;;5018462;28;20202;-87
2023/05/26 01:02:01;;;;;;;8.23;7.43;;;16.70;65.40;;;;;;5018013;28;20680;-88
2023/05/26 01:04:27;;;;;;;7.90;7.13;;;16.80;64.90;;;;;;5018576;28;20240;-87
2023/05/26 01:06:53;;;;;;;8.17;7.30;;;16.90;64.70;;;;;;5018705;28;20174;-86
2023/05/26 01:09:20;;;;;;;8.63;7.20;;;16.90;64.40;;;;;;5017124;28;20384;-85
2023/05/26 01:12:01;;;;;;;11.50;6.90;;;16.70;65.50;;;;;;5015160;28;20218;-85
2023/05/26 01:14:34;;;;;;;8.43;7.23;;;16.80;65.00;;;;;;5017586;28;20227;-88
2023/05/26 01:17:22;;;;;;;9.70;7.43;;;16.80;64.90;;;;;;5016631;28;20200;-87
2023/05/26 01:20:00;;;;;;;9.73;7.37;;;16.90;64.60;;;;;;5017507;28;20211;-87
2023/05/26 01:22:51;;;;;;;8.77;7.83;;;16.90;64.60;;;;;;5015213;28;20579;-86
2023/05/26 01:25:23;;;;;;;7.87;7.17;;;16.90;64.30;;;;;;5006578;28;20225;-86
2023/05/26 01:28:00;;;;;;;7.27;6.57;;;16.90;64.50;;;;;;4998696;28;20189;-87
2023/05/26 01:30:26;;;;;;;8.17;7.40;;;16.90;64.30;;;;;;5012183;28;20241;-86
2023/05/26 01:32:52;;;;;;;8.77;7.43;;;17.00;63.80;;;;;;5006156;28;20191;-87
2023/05/26 01:35:18;;;;;;;8.03;6.87;;;17.00;63.80;;;;;;5017083;28;20218;-86
2023/05/26 01:37:45;;;;;;;8.53;7.40;;;16.90;64.40;;;;;;5016123;28;20187;-88
2023/05/26 01:40:11;;;;;;;8.07;7.33;;;16.80;65.00;;;;;;5017215;28;20651;-86
2023/05/26 01:42:41;;;;;;;9.13;7.30;;;16.70;65.30;;;;;;5017490;28;20193;-88
2023/05/26 01:45:16;;;;;;;8.63;6.93;;;16.70;65.00;;;;;;5005190;28;20221;-85
2023/05/26 01:47:44;;;;;;;8.77;7.57;;;16.50;66.00;;;;;;4997755;28;20170;-86
2023/05/26 01:50:12;;;;;;;8.50;7.80;;;16.40;65.80;;;;;;5014302;28;20646;-87
2023/05/26 01:52:41;;;;;;;8.00;7.20;;;16.20;66.60;;;;;;5016836;28;20192;-87
2023/05/26 01:55:11;;;;;;;8.57;7.77;;;16.30;66.60;;;;;;5017525;28;20208;-88
2023/05/26 01:57:38;;;;;;;9.33;7.93;;;16.00;67.50;;;;;;5018016;28;20215;-86
2023/05/26 02:00:04;;;;;;;10.73;8.40;;;15.90;68.30;;;;;;5018296;28;20393;-86
2023/05/26 02:02:29;;;;;;;9.00;8.17;;;15.70;69.00;;;;;;5017909;28;20329;-85
2023/05/26 02:04:55;;;;;;;7.53;6.83;;;15.70;68.90;;;;;;5017109;28;20699;-87
2023/05/26 02:07:21;;;;;;;8.23;7.43;;;15.70;68.90;;;;;;5017718;28;20517;-87
2023/05/26 02:09:46;;;;;;;10.00;8.83;;;15.70;69.30;;;;;;5015647;28;20197;-86
2023/05/26 02:12:13;;;;;;;9.20;8.20;;;15.80;68.70;;;;;;5015619;28;20182;-87
2023/05/26 02:14:38;;;;;;;9.23;8.33;;;15.90;68.20;;;;;;5015715;28;20248;-88
2023/05/26 02:17:05;;;;;;;9.40;8.20;;;16.00;67.80;;;;;;5015837;28;20189;-86
2023/05/26 02:19:30;;;;;;;8.40;7.60;;;15.90;68.20;;;;;;5015870;28;20222;-86
2023/05/26 02:21:56;;;;;;;9.87;7.60;;;16.00;67.50;;;;;;5015002;28;20181;-87
2023/05/26 02:24:21;;;;;;;10.57;7.93;;;15.90;68.20;;;;;;5017441;28;20170;-88
2023/05/26 02:26:47;;;;;;;8.87;7.93;;;15.80;68.50;;;;;;5014361;28;20204;-87
2023/05/26 02:29:13;;;;;;;9.87;8.13;;;15.80;68.40;;;;;;5014903;28;20186;-88
2023/05/26 02:31:39;;;;;;;9.13;7.97;;;15.90;68.20;;;;;;5015638;28;20261;-88
2023/05/26 02:34:05;;;;;;;8.40;7.50;;;16.00;67.80;;;;;;5015532;28;20245;-87
2023/05/26 02:36:31;;;;;;;8.90;8.07;;;16.00;67.80;;;;;;5014539;28;20206;-88
2023/05/26 02:38:58;;;;;;;10.33;7.90;;;16.00;67.90;;;;;;5016166;28;20726;-87
2023/05/26 02:41:25;;;;;;;8.97;7.73;;;16.10;67.50;;;;;;5014317;28;20177;-87
2023/05/26 02:43:50;;;;;;;9.53;7.90;;;16.10;67.40;;;;;;5016870;28;20174;-88
2023/05/26 02:46:16;;;;;;;8.47;7.77;;;16.10;67.30;;;;;;5016925;28;20213;-86
2023/05/26 02:48:42;;;;;;;11.43;8.37;;;15.90;68.50;;;;;;5017620;28;20291;-88
2023/05/26 02:51:08;;;;;;;9.43;8.53;;;15.70;69.30;;;;;;5015474;28;20236;-87
2023/05/26 02:53:33;;;;;;;8.60;7.80;;;15.70;70.10;;;;;;5017097;28;20189;-87
2023/05/26 02:55:59;;;;;;;10.10;8.47;;;15.70;69.80;;;;;;5016764;28;20209;-88
2023/05/26 02:58:25;;;;;;;9.83;8.07;;;15.60;70.40;;;;;;5018006;28;20186;-87
2023/05/26 03:00:50;;;;;;;8.50;7.67;;;15.60;70.70;;;;;;5016273;28;20177;-86
2023/05/26 03:03:16;;;;;;;8.67;7.87;;;15.50;71.10;;;;;;5015434;28;20178;-86
2023/05/26 03:05:42;;;;;;;9.33;8.63;;;15.30;72.00;;;;;;5013977;28;20248;-88
2023/05/26 03:08:08;;;;;;;9.77;8.23;;;15.30;72.40;;;;;;5014947;28;20245;-87
2023/05/26 03:10:33;;;;;;;9.30;8.40;;;15.50;71.70;;;;;;5013864;28;20191;-87
2023/05/26 03:13:00;;;;;;;10.73;8.60;;;15.50;71.30;;;;;;5014709;28;20177;-87
2023/05/26 03:15:35;;;;;;;9.43;8.53;;;15.50;71.70;;;;;;5016979;28;20256;-87
2023/05/26 03:18:00;;;;;;;10.30;9.27;;;15.50;71.40;;;;;;5019665;28;20164;-87
2023/05/26 03:20:26;;;;;;;10.97;9.73;;;15.30;72.30;;;;;;5018465;28;20213;-87
2023/05/26 03:22:52;;;;;;;9.63;8.63;;;15.20;72.80;;;;;;5018055;28;20186;-87
2023/05/26 03:25:18;;;;;;;10.17;9.20;;;15.30;72.50;;;;;;5018704;28;20196;-87
2023/05/26 03:27:44;;;;;;;10.80;9.23;;;15.30;72.50;;;;;;5019401;28;20260;-87
2023/05/26 03:30:10;;;;;;;10.60;9.27;;;15.30;72.30;;;;;;5019797;28;20208;-88
2023/05/26 03:32:35;;;;;;;11.07;9.97;;;15.30;71.90;;;;;;5019727;28;20574;-86
2023/05/26 03:35:02;;;;;;;10.67;9.37;;;15.30;71.80;;;;;;5030564;28;20276;-87
2023/05/26 03:37:27;;;;;;;10.70;9.33;;;15.30;72.10;;;;;;5013483;28;20194;-86
2023/05/26 03:39:53;;;;;;;11.17;9.80;;;15.30;72.30;;;;;;5006869;28;20218;-86
2023/05/26 03:42:19;;;;;;;13.33;9.37;;;15.40;72.40;;;;;;5008332;28;20198;-87
2023/05/26 03:44:44;;;;;;;13.60;9.57;;;15.30;71.70;;;;;;5018468;28;20623;-87
2023/05/26 03:47:10;;;;;;;18.23;10.50;;;15.20;72.40;;;;;;5011397;28;20239;-87
2023/05/26 03:49:35;;;;;;;13.20;9.53;;;15.20;72.10;;;;;;4999650;28;20188;-87
2023/05/26 03:52:02;;;;;;;10.73;9.70;;;15.00;72.30;;;;;;4999549;28;20331;-86
2023/05/26 03:54:27;;;;;;;11.37;10.17;;;15.00;72.50;;;;;;5004742;28;20195;-88
2023/05/26 03:56:55;;;;;;;13.70;9.93;;;15.00;72.40;;;;;;5019715;28;20182;-88
2023/05/26 03:59:20;;;;;;;12.10;9.33;;;14.90;72.40;;;;;;5018157;28;20344;-87
2023/05/26 04:01:46;;;;;;;11.00;10.00;;;14.90;71.80;;;;;;5017571;28;20209;-87
2023/05/26 04:04:12;;;;;;;10.80;9.90;;;14.60;73.30;;;;;;5017486;28;20205;-86
2023/05/26 04:06:38;;;;;;;12.20;10.13;;;14.50;74.10;;;;;;5018708;28;20199;-88
2023/05/26 04:09:04;;;;;;;11.20;9.20;;;14.50;74.00;;;;;;5018022;28;20170;-86
2023/05/26 04:11:30;;;;;;;15.10;10.53;;;14.60;73.50;;;;;;5007380;28;20196;-87
2023/05/26 04:13:56;;;;;;;11.03;9.93;;;14.40;74.00;;;;;;5013131;28;20553;-88
2023/05/26 04:16:21;;;;;;;10.93;9.93;;;14.40;74.50;;;;;;5016637;28;20211;-88
2023/05/26 04:18:47;;;;;;;13.07;10.50;;;14.40;75.00;;;;;;5016509;28;20198;-88
2023/05/26 04:21:13;;;;;;;11.67;10.37;;;14.30;75.40;;;;;;5016340;28;20219;-87
2023/05/26 04:23:38;;;;;;;11.03;9.93;;;14.50;74.60;;;;;;5016372;28;20167;-88
2023/05/26 04:26:05;;;;;;;11.23;9.90;;;14.70;73.90;;;;;;5017281;28;20204;-88
2023/05/26 04:28:30;;;;;;;12.97;9.33;;;14.90;72.90;;;;;;5018316;28;20635;-87
2023/05/26 04:30:56;;;;;;;10.10;9.13;;;14.90;73.70;;;;;;5017513;28;20183;-88
2023/05/26 04:33:22;;;;;;;10.93;9.77;;;14.90;72.30;;;;;;5019711;28;20879;-84
2023/05/26 04:35:48;;;;;;;10.90;9.87;;;15.00;72.20;;;;;;5019689;28;20197;-81
2023/05/26 04:38:15;;;;;;;12.53;10.13;;;14.90;71.80;;;;;;5014637;28;20190;-84
2023/05/26 04:40:42;;;;;;;11.23;9.90;;;15.00;72.20;;;;;;5018811;28;20209;-86
2023/05/26 04:43:08;;;;;;;11.97;9.87;;;15.00;71.80;;;;;;5016954;28;20204;-87
2023/05/26 04:45:36;;;;;;;10.57;9.67;;;14.90;72.20;;;;;;5018769;28;20215;-86
2023/05/26 04:48:02;;;;;;;13.70;9.60;;;14.70;73.00;;;;;;5017582;28;20300;-87
2023/05/26 04:50:32;;;;;;;9.90;8.93;;;14.70;73.40;;;;;;5017625;28;20213;-86
2023/05/26 04:52:58;;;;;;;11.07;9.93;;;14.70;73.70;;;;;;5017422;28;20609;-85
2023/05/26 04:55:25;;;;;;;11.53;10.20;;;14.60;73.90;;;;;;5016900;28;20262;-86
2023/05/26 04:57:50;;;;;;;10.83;9.73;;;14.50;74.30;;;;;;5014611;28;20253;-86
2023/05/26 05:00:16;;;;;;;11.47;10.27;;;14.50;74.50;;;;;;5015547;28;20830;-86
2023/05/26 05:02:42;;;;;;;12.87;10.80;;;14.60;74.50;;;;;;5016332;28;20618;-86
2023/05/26 05:05:08;;;;;;;10.77;9.67;;;14.60;74.40;;;;;;5016589;28;20395;-87
2023/05/26 05:07:34;;;;;;;10.63;9.63;;;14.50;74.80;;;;;;5015931;28;20451;-86
2023/05/26 05:09:59;;;;;;;10.57;9.50;;;14.40;75.10;;;;;;5032177;28;20184;-86
2023/05/26 05:12:25;;;;;;;10.40;9.43;;;14.40;75.10;;;;;;5018349;28;20234;-87
2023/05/26 05:14:51;;;;;;;11.87;10.00;;;14.40;75.30;;;;;;5016083;28;20650;-86
2023/05/26 05:17:17;;;;;;;10.57;9.37;;;14.30;75.90;;;;;;5006508;28;20216;-87
2023/05/26 05:19:43;;;;;;;10.83;9.70;;;14.30;76.40;;;;;;5019760;28;20424;-85
2023/05/26 05:22:09;;;;;;;11.27;9.60;;;14.40;76.00;;;;;;5017834;28;20184;-86
2023/05/26 05:24:34;;;;;;;12.13;10.10;;;14.50;75.40;;;;;;5017509;28;20575;-85
2023/05/26 05:27:01;;;;;;;12.93;10.53;;;14.70;75.00;;;;;;5012594;28;20180;-87
2023/05/26 05:29:27;;;;;;;12.20;10.30;;;14.70;74.20;;;;;;4999572;28;20639;-86
2023/05/26 05:31:52;;;;;;;11.47;10.37;;;14.60;74.90;;;;;;5002927;28;20184;-87
2023/05/26 05:34:18;;;;;;;12.40;10.70;;;14.60;74.80;;;;;;5008842;28;20195;-86
2023/05/26 05:36:44;;;;;;;12.33;10.27;;;14.60;74.90;;;;;;5014940;28;20204;-86
2023/05/26 05:39:10;;;;;;;11.87;10.60;;;14.50;75.60;;;;;;5018914;28;20541;-86
2023/05/26 05:41:35;;;;;;;12.20;10.77;;;14.50;75.70;;;;;;5006611;28;20596;-85
2023/05/26 05:44:02;;;;;;;11.47;10.20;;;14.50;75.70;;;;;;5005654;28;20199;-86
2023/05/26 05:46:27;;;;;;;11.63;9.93;;;14.60;74.60;;;;;;5019934;28;20281;-86
2023/05/26 05:48:53;;;;;;;11.10;10.00;;;14.60;74.70;;;;;;5017859;28;20210;-85
2023/05/26 05:51:19;;;;;;;12.13;10.87;;;14.70;75.40;;;;;;5018159;28;20185;-87
2023/05/26 05:53:45;;;;;;;10.47;9.47;;;14.70;74.90;;;;;;5029043;28;20682;-85
2023/05/26 05:56:11;;;;;;;11.60;10.03;;;14.80;75.20;;;;;;4995566;28;20312;-86
2023/05/26 05:58:36;;;;;;;11.57;10.23;;;14.80;74.80;;;;;;4996780;28;20207;-86
2023/05/26 06:01:02;;;;;;;11.57;10.37;;;14.80;73.90;;;;;;4997263;28;20208;-88
2023/05/26 06:03:27;;;;;;;14.37;9.60;;;14.90;74.20;;;;;;4997946;28;20231;-87
2023/05/26 06:05:53;;;;;;;11.17;10.07;;;14.90;73.90;;;;;;4996029;28;20308;-88
2023/05/26 06:08:19;;;;;;;12.10;10.43;;;15.00;73.90;;;;;;5008351;28;20180;-87
2023/05/26 06:10:44;;;;;;;13.83;10.47;;;15.10;73.70;;;;;;5034945;28;20192;-88
2023/05/26 06:13:10;;;;;;;11.87;10.27;;;15.10;72.90;;;;;;5035993;28;20288;-87
2023/05/26 06:15:36;;;;;;;10.60;9.70;;;15.10;74.10;;;;;;5035951;28;20274;-89
2023/05/26 06:18:01;;;;;;;10.13;9.27;;;15.30;73.50;;;;;;5036170;28;20626;-88
2023/05/26 06:20:27;;;;;;;10.53;9.43;;;15.30;73.10;;;;;;5034944;28;20457;-87
2023/05/26 06:22:52;;;;;;;11.03;9.53;;;15.40;72.60;;;;;;5017599;28;20190;-87
2023/05/26 06:25:18;;;;;;;11.93;9.93;;;15.50;71.80;;;;;;5011087;28;20205;-88
2023/05/26 06:27:44;;;;;;;11.10;9.90;;;15.70;71.10;;;;;;4997360;28;20704;-89
2023/05/26 06:30:10;;;;;;;10.83;9.83;;;15.80;70.30;;;;;;5003110;28;20196;-89
2023/05/26 06:32:36;;;;;;;10.90;9.77;;;15.80;70.30;;;;;;5015575;28;20236;-88
2023/05/26 06:35:01;;;;;;;12.43;10.43;;;15.80;70.80;;;;;;5017405;28;20205;-87
2023/05/26 06:37:27;;;;;;;10.83;9.53;;;15.70;70.50;;;;;;5001443;28;20178;-87
2023/05/26 06:39:53;;;;;;;13.10;9.53;;;15.60;71.30;;;;;;4994733;28;20214;-87
2023/05/26 06:42:18;;;;;;;13.20;9.53;;;15.80;71.50;;;;;;4995402;28;20623;-85
2023/05/26 06:44:44;;;;;;;13.43;9.80;;;15.90;70.30;;;;;;4996097;28;20288;-88
2023/05/26 06:47:09;;;;;;;11.07;9.97;;;16.00;69.70;;;;;;4993518;28;20235;-88
2023/05/26 06:49:35;;;;;;;11.57;9.10;;;16.10;69.30;;;;;;4994611;28;20190;-87
2023/05/26 06:52:01;;;;;;;10.90;9.60;;;16.20;68.60;;;;;;5010695;28;20187;-88
2023/05/26 06:54:26;;;;;;;13.80;9.67;;;16.20;69.10;;;;;;5015548;28;20181;-87
2023/05/26 06:56:52;;;;;;;12.93;10.23;;;16.30;68.70;;;;;;5014187;28;20189;-87
2023/05/26 06:59:18;;;;;;;10.83;9.63;;;16.40;68.70;;;;;;5014455;28;20225;-88
2023/05/26 07:01:43;;;;;;;11.57;9.53;;;16.70;67.70;;;;;;5012723;28;20184;-88
2023/05/26 07:04:09;;;;;;;11.50;9.33;;;16.80;66.20;;;;;;5015173;28;20552;-87
2023/05/26 07:06:35;;;;;;;12.43;9.53;;;16.90;64.90;;;;;;5015019;28;20198;-88
2023/05/26 07:09:01;;;;;;;10.83;9.73;;;16.90;64.40;;;;;;5024765;28;20236;-86
2023/05/26 07:11:26;;;;;;;11.13;10.00;;;16.90;64.50;;;;;;5034652;28;20204;-87
2023/05/26 07:13:52;;;;;;;10.27;9.27;;;17.10;64.10;;;;;;5028710;28;20190;-88
2023/05/26 07:16:18;;;;;;;10.47;8.93;;;17.20;62.90;;;;;;4995835;28;20229;-87
2023/05/26 07:18:43;;;;;;;9.93;8.97;;;17.30;62.70;;;;;;4994374;28;20235;-88
2023/05/26 07:21:09;;;;;;;10.10;9.10;;;17.40;62.40;;;;;;4996185;28;20653;-88
2023/05/26 07:23:35;;;;;;;12.60;9.60;;;17.40;62.30;;;;;;5000928;28;20181;-88
2023/05/26 07:26:00;;;;;;;11.33;10.17;;;17.60;62.20;;;;;;4999693;28;20210;-88
2023/05/26 07:28:26;;;;;;;13.27;9.43;;;17.70;62.70;;;;;;5016599;28;20185;-88
2023/05/26 07:30:52;;;;;;;10.43;8.83;;;17.70;61.90;;;;;;5015544;28;20177;-88
2023/05/26 07:33:17;;;;;;;10.30;9.23;;;17.80;61.00;;;;;;5015574;28;20221;-87
2023/05/26 07:35:43;;;;;;;12.03;9.43;;;17.80;60.90;;;;;;5015463;28;20194;-88
2023/05/26 07:38:09;;;;;;;11.43;9.70;;;17.70;61.50;;;;;;4996357;28;20191;-90
2023/05/26 07:40:35;;;;;;;10.47;9.40;;;17.90;61.10;;;;;;4994569;28;20931;-88
2023/05/26 07:43:02;;;;;;;11.98;9.70;;;18.00;60.60;;;;;;4995950;28;20515;-88
2023/05/26 07:45:28;;;;;;;10.05;9.05;;;18.20;60.40;;;;;;4995421;28;20232;-89
2023/05/26 07:47:53;;;;;;;10.45;9.40;;;18.40;59.90;;;;;;4993784;28;20591;-88
2023/05/26 07:50:19;;;;;;;10.85;9.38;;;18.50;58.70;;;;;;5001295;28;20668;-88
2023/05/26 07:52:45;;;;;;;10.80;9.70;;;18.50;58.20;;;;;;5014532;28;20258;-89
2023/05/26 07:55:10;;;;;;;14.05;9.68;;;18.60;58.50;;;;;;5012535;28;20266;-88
2023/05/26 07:57:36;;;;;;;12.10;9.75;;;18.60;58.40;;;;;;5013746;28;20327;-88
2023/05/26 08:00:03;;;;;;;10.38;9.25;;;18.70;58.50;;;;;;5012826;28;20270;-87
2023/05/26 08:02:29;;;;;;;9.88;8.75;;;18.80;57.50;;;;;;5004498;28;20682;-90
2023/05/26 08:04:54;;;;;;;11.38;10.25;;;18.90;57.50;;;;;;5017444;28;20207;-89
2023/05/26 08:07:20;;;;;;;10.13;9.10;;;18.90;57.10;;;;;;5019314;28;20555;-89
2023/05/26 08:09:46;;;;;;;10.68;9.45;;;18.90;57.10;;;;;;5033812;28;20199;-88
2023/05/26 08:12:12;;;;;;;10.90;9.77;;;19.00;56.90;;;;;;5036681;28;20186;-87
2023/05/26 08:14:38;;;;;;;10.65;9.57;;;19.00;56.70;;;;;;5018144;28;20301;-89
2023/05/26 08:17:03;;;;;;;12.20;9.27;;;19.00;57.70;;;;;;5020017;28;20639;-88
2023/05/26 08:19:29;;;;;;;11.35;9.43;;;19.30;57.60;;;;;;5018427;28;20473;-88
2023/05/26 08:21:55;;;;;;;22.10;10.82;;;19.50;55.80;;;;;;5016159;28;20177;-88
2023/05/26 08:24:29;;;;;;;12.30;9.50;;;19.50;56.10;;;;;;5016297;28;20165;-87
2023/05/26 08:26:55;;;;;;;10.38;9.38;;;19.50;55.70;;;;;;5017598;28;20236;-88
2023/05/26 08:29:22;;;;;;;10.15;9.20;;;19.70;55.40;;;;;;5016137;28;20201;-88
2023/05/26 08:31:48;;;;;;;11.32;10.18;;;19.50;55.10;;;;;;5018557;28;20173;-87
2023/05/26 08:34:13;;;;;;;14.00;9.57;;;19.20;56.70;;;;;;5019151;28;20222;-88
2023/05/26 08:36:39;;;;;;;11.82;9.50;;;19.20;56.80;;;;;;5018093;28;20208;-88
2023/05/26 08:39:05;;;;;;;10.52;9.50;;;19.60;56.20;;;;;;5018381;28;20228;-88
2023/05/26 08:41:47;;;;;;;12.90;9.93;;;19.60;55.10;;;;;;5017809;28;20185;-88
2023/05/26 08:44:17;;;;;;;11.77;9.13;;;19.70;55.90;;;;;;5012667;28;20248;-88
2023/05/26 08:46:45;;;;;;;11.82;9.50;;;20.10;54.60;;;;;;5000303;28;20202;-88
2023/05/26 08:49:15;;;;;;;11.73;9.23;;;20.20;54.50;;;;;;4998692;28;20585;-89
2023/05/26 08:51:44;;;;;;;9.93;9.02;;;20.50;53.80;;;;;;4996452;28;20503;-87
2023/05/26 08:54:11;;;;;;;10.90;9.85;;;20.40;53.60;;;;;;4996854;28;20659;-89
2023/05/26 08:56:36;;;;;;;11.48;10.07;;;20.60;52.80;;;;;;4997362;28;20202;-90
2023/05/26 08:59:04;;;;;;;12.13;8.95;;;20.70;52.90;;;;;;4998248;28;20284;-88
2023/05/26 09:01:30;;;;;;;10.32;9.35;;;20.70;52.40;;;;;;4998555;28;20600;-87
2023/05/26 09:03:56;;;;;;;10.85;9.85;;;20.80;52.60;;;;;;5018559;28;20213;-88
2023/05/26 09:06:22;;;;;;;10.52;9.60;;;20.80;51.70;;;;;;5019062;28;20761;-87
2023/05/26 09:08:48;;;;;;;11.25;10.05;;;20.60;52.20;;;;;;5025490;28;20192;-88
2023/05/26 09:11:24;;;;;;;10.98;9.85;;;20.70;53.50;;;;;;5036994;28;20563;-87
2023/05/26 09:13:55;;;;;;;13.95;9.40;;;20.80;52.70;;;;;;5036368;28;20393;-88
2023/05/26 09:16:25;;;;;;;13.32;10.00;;;20.80;53.10;;;;;;5029600;28;20198;-87
2023/05/26 09:19:17;;;;;;;11.45;10.27;;;20.70;53.20;;;;;;5017712;28;20205;-88
2023/05/26 09:21:52;;;;;;;13.65;9.90;;;20.70;53.20;;;;;;5007774;28;20261;-88
2023/05/26 09:24:20;;;;;;;15.07;10.23;;;21.00;53.40;;;;;;5016917;28;20244;-87
2023/05/26 09:26:49;;;;;;;11.73;10.55;;;21.10;52.10;;;;;;5016753;28;20181;-88
2023/05/26 09:29:15;;;;;;;13.13;10.60;;;21.30;52.00;;;;;;5015545;28;20327;-87
2023/05/26 09:31:44;;;;;;;17.40;11.20;;;21.40;51.60;;;;;;5014399;28;20210;-88
2023/05/26 09:34:11;;;;;;;12.10;10.90;;;21.50;52.50;;;;;;4998286;28;20251;-88
2023/05/26 09:36:38;;;;;;;13.02;10.93;;;21.60;51.50;;;;;;4995924;28;20209;-87
2023/05/26 09:39:05;;;;;;;12.90;10.52;;;21.60;51.80;;;;;;4996013;28;20208;-88
2023/05/26 09:41:39;;;;;;;13.02;9.88;;;21.80;51.20;;;;;;5008914;28;20257;-88
2023/05/26 09:44:11;;;;;;;13.57;10.43;;;21.80;50.40;;;;;;5015543;28;20230;-88
2023/05/26 09:46:38;;;;;;;12.32;11.23;;;22.00;50.70;;;;;;5015080;28;20211;-89
2023/05/26 09:49:14;;;;;;;14.00;11.20;;;22.20;50.00;;;;;;5015685;28;20200;-88
2023/05/26 09:51:42;;;;;;;11.73;10.52;;;22.30;49.40;;;;;;5015725;28;20165;-87
2023/05/26 09:54:12;;;;;;;12.73;11.63;;;22.40;49.50;;;;;;5017073;28;20627;-88
2023/05/26 09:56:56;;;;;;;11.48;10.27;;;22.40;48.70;;;;;;5017649;28;20205;-88
2023/05/26 09:59:31;;;;;;;13.55;11.52;;;22.50;49.30;;;;;;5018339;28;20248;-87
2023/05/26 10:01:57;;;;;;;13.68;10.75;;;22.40;48.40;;;;;;5018660;28;20532;-88
2023/05/26 10:04:24;;;;;;;14.02;11.52;;;22.50;49.00;;;;;;5010070;28;20196;-88
2023/05/26 10:06:52;;;;;;;12.25;11.07;;;22.70;47.70;;;;;;5002851;28;20165;-89
2023/05/26 10:09:21;;;;;;;15.82;12.60;;;22.80;47.10;;;;;;5027335;28;20173;-89
2023/05/26 10:11:49;;;;;;;14.27;11.15;;;22.90;46.50;;;;;;5023500;28;20236;-88
2023/05/26 10:14:15;;;;;;;13.18;11.88;;;22.90;47.20;;;;;;4997780;28;20445;-88
2023/05/26 10:16:42;;;;;;;11.35;10.27;;;22.70;47.10;;;;;;5017406;28;20312;-88
2023/05/26 10:19:08;;;;;;;12.98;11.60;;;23.00;47.40;;;;;;5015437;28;20216;-87
2023/05/26 10:21:40;;;;;;;16.73;12.25;;;23.40;46.10;;;;;;5016911;28;20181;-88
2023/05/26 10:24:31;;;;;;;12.80;11.48;;;23.40;45.00;;;;;;5016227;28;20652;-88
2023/05/26 10:27:24;;;;;;;12.40;11.25;;;23.50;44.70;;;;;;5015609;28;20158;-87
2023/05/26 10:30:00;;;;;;;12.13;11.05;;;23.70;44.20;;;;;;5014328;28;20174;-88
2023/05/26 10:33:10;;;;;;;12.82;10.70;;;24.20;43.20;;;;;;5016977;28;20158;-88
2023/05/26 10:35:37;;;;;;;12.55;11.23;;;24.40;42.60;;;;;;4952994;29;20219;-89
2023/05/26 10:38:03;;;;;;;11.90;10.88;;;24.70;41.50;;;;;;4989609;28;20194;-88
2023/05/26 10:40:49;;;;;;;12.40;11.38;;;24.70;41.90;;;;;;4995685;28;20214;-88
2023/05/26 10:43:26;;;;;;;12.80;10.63;;;24.50;41.70;;;;;;4996783;28;20202;-88
2023/05/26 10:45:58;;;;;;;12.60;11.50;;;24.60;41.30;;;;;;5015748;28;20208;-87
2023/05/26 10:48:54;;;;;;;13.27;10.85;;;24.80;40.70;;;;;;5016153;28;20563;-87
2023/05/26 10:51:25;;;;;;;12.60;11.40;;;25.20;40.40;;;;;;5018653;28;20628;-89
2023/05/26 10:53:53;;;;;;;12.27;11.23;;;25.10;40.10;;;;;;5019295;28;20189;-88
2023/05/26 10:56:25;;;;;;;13.23;11.25;;;24.80;40.10;;;;;;5019740;28;20216;-88
2023/05/26 10:58:55;;;;;;;12.07;10.88;;;24.80;40.20;;;;;;5019618;28;20226;-86
2023/05/26 11:01:29;;;;;;;12.73;11.55;;;24.90;41.30;;;;;;5019955;28;20241;-87
2023/05/26 11:04:08;;;;;;;12.18;10.98;;;24.60;40.30;;;;;;5019967;28;20203;-89
2023/05/26 11:06:47;;;;;;;16.08;11.60;;;24.60;41.10;;;;;;5020752;28;20635;-87
2023/05/26 11:09:13;;;;;;;11.50;10.30;;;24.60;41.10;;;;;;5027824;28;20180;-87
2023/05/26 11:11:49;;;;;;;11.48;10.57;;;24.60;41.60;;;;;;5029503;28;20190;-91
2023/05/26 11:14:20;;;;;;;12.23;11.18;;;24.50;41.60;;;;;;5020394;28;20208;-88
2023/05/26 11:16:48;;;;;;;13.02;11.95;;;24.80;40.40;;;;;;5022331;28;20212;-90
2023/05/26 11:19:14;;;;;;;11.95;10.75;;;24.70;40.40;;;;;;5019363;28;20587;-87
2023/05/26 11:21:40;;;;;;;12.07;11.00;;;25.10;39.90;;;;;;5017347;28;20288;-87
2023/05/26 11:24:06;;;;;;;13.85;11.02;;;25.60;39.50;;;;;;5000136;28;20182;-87
2023/05/26 11:26:33;;;;;;;11.65;10.57;;;25.50;38.40;;;;;;4999978;28;20194;-90
2023/05/26 11:29:03;;;;;;;11.60;10.43;;;25.50;38.80;;;;;;5002183;28;20181;-87
2023/05/26 11:31:29;;;;;;;12.23;10.90;;;25.90;38.90;;;;;;4998129;28;20221;-89
2023/05/26 11:33:56;;;;;;;12.82;11.43;;;26.00;38.90;;;;;;4996321;28;20269;-89
2023/05/26 11:36:23;;;;;;;11.00;10.10;;;26.00;37.90;;;;;;4996778;28;20205;-89
2023/05/26 11:38:57;;;;;;;11.60;10.60;;;26.00;38.40;;;;;;5011443;28;20182;-92
2023/05/26 11:41:25;;;;;;;12.07;10.98;;;26.40;37.50;;;;;;5021294;28;20219;-88
2023/05/26 11:43:54;;;;;;;12.75;11.50;;;25.90;37.50;;;;;;5023743;28;20206;-89
2023/05/26 11:46:22;;;;;;;12.60;11.38;;;26.00;38.20;;;;;;5006503;28;20210;-87
2023/05/26 11:48:48;;;;;;;18.10;11.73;;;26.30;36.80;;;;;;5006685;28;20260;-88
2023/05/26 11:51:19;;;;;;;11.88;10.20;;;26.20;37.30;;;;;;5005651;28;20182;-87
2023/05/26 11:53:46;;;;;;;13.85;10.90;;;26.10;38.20;;;;;;5005711;28;20182;-89
2023/05/26 11:56:14;;;;;;;11.45;10.45;;;26.00;37.90;;;;;;5021752;28;20201;-89
2023/05/26 11:58:54;;;;;;;12.98;11.68;;;26.00;37.90;;;;;;5025471;28;20178;-87
2023/05/26 12:01:21;;;;;;;12.52;10.90;;;26.20;37.30;;;;;;5023349;28;20203;-88
2023/05/26 12:03:50;;;;;;;13.90;11.30;;;26.60;36.70;;;;;;5025869;28;20486;-87
2023/05/26 12:06:19;;;;;;;12.80;11.60;;;26.70;36.50;;;;;;5023169;28;20193;-91
2023/05/26 12:08:53;;;;;;;12.20;11.05;;;26.70;35.70;;;;;;5022715;28;20598;-87
2023/05/26 12:11:23;;;;;;;12.10;10.93;;;26.70;35.80;;;;;;5022294;28;20177;-89
2023/05/26 12:14:01;;;;;;;12.05;10.95;;;27.00;35.40;;;;;;5000021;28;20195;-89
2023/05/26 12:16:31;;;;;;;13.82;12.60;;;27.60;35.20;;;;;;5003863;28;20202;-88
2023/05/26 12:18:58;;;;;;;14.15;12.90;;;27.70;34.50;;;;;;5001370;28;20209;-87
2023/05/26 12:21:25;;;;;;;13.70;12.63;;;27.60;34.10;;;;;;5002121;28;20548;-89
2023/05/26 12:23:53;;;;;;;13.15;12.07;;;27.50;34.30;;;;;;5024284;28;20425;-89
2023/05/26 12:26:25;;;;;;;14.07;12.55;;;26.70;35.80;;;;;;5021023;28;20197;-88
2023/05/26 12:29:10;;;;;;;11.50;10.70;;;27.00;35.50;;;;;;5022312;28;20186;-87
2023/05/26 12:31:46;;;;;;;12.65;11.50;;;27.70;34.50;;;;;;5019662;28;20407;-88
2023/05/26 12:34:23;;;;;;;14.40;13.20;;;28.20;34.20;;;;;;5019454;28;20811;-87
2023/05/26 12:36:50;;;;;;;14.40;13.45;;;28.40;33.00;;;;;;5019488;28;20426;-89
2023/05/26 12:39:17;;;;;;;13.40;12.48;;;28.30;34.00;;;;;;5020179;28;20204;-90